Time;durP1;ratioP1;P1;durP2;ratioP2;P2;SDS_P1;SDS_P2;PMS_P1;PMS_P2;Temp;Humidity;BMP_temperature;BMP_pressure;BME280_temperature;BME280_humidity;BME280_pressure;Samples;Min_cycle;Max_cycle;Signal;HPM_P1;HPM_P2
2021/09/12 00:00:45;;;;;;;24.93;17.40;;;17.90;99.90;;;;;;5121715;27;20207;-46
2021/09/12 00:03:12;;;;;;;24.07;16.63;;;17.90;99.90;;;;;;5123394;27;20623;-53
2021/09/12 00:05:39;;;;;;;28.97;18.23;;;17.90;99.90;;;;;;5124553;27;20204;-45
2021/09/12 00:08:06;;;;;;;24.83;18.60;;;17.90;99.90;;;;;;5122266;27;20192;-51
2021/09/12 00:10:32;;;;;;;25.63;17.83;;;17.90;99.90;;;;;;5099939;27;20949;-47
2021/09/12 00:12:59;;;;;;;27.87;17.43;;;17.90;99.90;;;;;;5105369;28;20473;-45
2021/09/12 00:15:27;;;;;;;23.73;17.57;;;17.90;99.90;;;;;;5096993;27;20224;-45
2021/09/12 00:17:54;;;;;;;23.03;15.80;;;17.90;99.90;;;;;;5125598;27;20193;-47
2021/09/12 00:20:21;;;;;;;26.60;18.13;;;17.90;99.90;;;;;;5121893;27;20902;-46
2021/09/12 00:22:47;;;;;;;23.70;17.03;;;17.90;99.90;;;;;;5125305;27;20581;-47
2021/09/12 00:25:14;;;;;;;28.27;17.83;;;17.80;99.90;;;;;;5107681;27;20299;-51
2021/09/12 00:27:41;;;;;;;25.97;17.10;;;17.90;99.90;;;;;;5104074;28;20189;-50
2021/09/12 00:30:09;;;;;;;24.57;16.40;;;17.80;99.90;;;;;;5118723;27;20291;-52
2021/09/12 00:32:36;;;;;;;26.50;18.00;;;17.90;99.90;;;;;;5122856;27;20910;-46
2021/09/12 00:35:04;;;;;;;28.33;17.70;;;17.80;99.90;;;;;;5124587;27;20208;-51
2021/09/12 00:37:31;;;;;;;25.47;17.60;;;17.90;99.90;;;;;;5122445;27;20208;-51
2021/09/12 00:39:57;;;;;;;22.50;16.60;;;17.80;99.90;;;;;;5125219;27;20558;-46
2021/09/12 00:42:24;;;;;;;24.80;17.50;;;17.80;99.90;;;;;;5113983;27;20199;-45
2021/09/12 00:44:51;;;;;;;22.70;16.03;;;17.80;99.90;;;;;;5124989;27;20221;-46
2021/09/12 00:47:17;;;;;;;22.53;16.00;;;17.80;99.90;;;;;;5104949;27;20212;-52
2021/09/12 00:49:45;;;;;;;24.70;17.07;;;17.80;99.90;;;;;;5124914;27;20204;-46
2021/09/12 00:52:13;;;;;;;21.27;17.13;;;17.80;99.90;;;;;;5122516;27;20203;-52
2021/09/12 00:54:41;;;;;;;22.80;16.40;;;17.80;99.90;;;;;;5123874;27;20216;-45
2021/09/12 00:57:09;;;;;;;22.53;16.40;;;17.80;99.90;;;;;;5100688;27;20784;-53
2021/09/12 00:59:37;;;;;;;26.33;16.90;;;17.80;99.90;;;;;;5126459;27;20196;-50
2021/09/12 01:02:05;;;;;;;21.23;15.53;;;17.80;99.90;;;;;;5113452;27;20577;-52
2021/09/12 01:04:31;;;;;;;21.57;16.93;;;17.80;99.90;;;;;;5121875;27;20943;-48
2021/09/12 01:06:59;;;;;;;24.60;17.27;;;17.80;99.90;;;;;;5124270;27;20192;-45
2021/09/12 01:09:26;;;;;;;22.63;17.13;;;17.70;99.90;;;;;;5120774;27;20188;-47
2021/09/12 01:11:58;;;;;;;24.70;17.13;;;17.80;99.90;;;;;;5104350;27;20547;-46
2021/09/12 01:14:26;;;;;;;22.47;16.33;;;17.80;99.90;;;;;;5099987;28;20174;-46
2021/09/12 01:16:53;;;;;;;23.07;17.37;;;17.70;99.90;;;;;;5106674;27;20212;-46
2021/09/12 01:19:20;;;;;;;24.13;17.37;;;17.60;99.90;;;;;;5120340;27;20212;-50
2021/09/12 01:21:47;;;;;;;24.20;16.23;;;17.60;99.90;;;;;;5118685;27;20211;-45
2021/09/12 01:24:15;;;;;;;23.20;16.67;;;17.60;99.90;;;;;;5120794;27;20221;-51
2021/09/12 01:26:42;;;;;;;26.27;16.63;;;17.70;99.90;;;;;;5104749;27;20204;-46
2021/09/12 01:29:08;;;;;;;24.07;16.50;;;17.70;99.90;;;;;;5122332;27;20634;-53
2021/09/12 01:31:35;;;;;;;20.43;16.60;;;17.70;99.90;;;;;;5122151;27;21165;-45
2021/09/12 01:34:02;;;;;;;22.97;15.90;;;17.60;99.90;;;;;;5125209;27;20191;-50
2021/09/12 01:36:29;;;;;;;22.17;17.20;;;17.70;99.90;;;;;;5121223;27;20200;-47
2021/09/12 01:38:55;;;;;;;19.47;16.07;;;17.70;99.90;;;;;;5124206;27;20203;-45
2021/09/12 01:41:24;;;;;;;23.63;17.10;;;17.70;99.90;;;;;;5112433;27;20209;-45
2021/09/12 01:43:52;;;;;;;23.20;16.70;;;17.70;99.90;;;;;;5103823;28;20219;-45
2021/09/12 01:46:19;;;;;;;24.73;17.53;;;17.70;99.90;;;;;;5099350;28;20205;-52
2021/09/12 01:48:46;;;;;;;27.80;17.50;;;17.70;99.90;;;;;;5109250;27;20677;-51
2021/09/12 01:51:13;;;;;;;26.40;16.97;;;17.70;99.90;;;;;;5121594;27;20227;-51
2021/09/12 01:53:40;;;;;;;27.37;17.20;;;17.60;99.90;;;;;;5123276;27;20277;-46
2021/09/12 01:56:06;;;;;;;26.60;18.40;;;17.60;99.90;;;;;;5120254;27;20215;-51
2021/09/12 01:58:34;;;;;;;23.73;17.97;;;17.60;99.90;;;;;;5113983;27;20200;-46
2021/09/12 02:01:01;;;;;;;27.27;17.97;;;17.60;99.90;;;;;;5135297;27;20203;-49
2021/09/12 02:03:28;;;;;;;26.20;18.07;;;17.60;99.90;;;;;;5112979;27;20204;-47
2021/09/12 02:05:54;;;;;;;27.10;18.60;;;17.60;99.90;;;;;;5124091;27;20209;-45
2021/09/12 02:08:21;;;;;;;27.90;19.93;;;17.60;99.90;;;;;;5119585;27;20181;-45
2021/09/12 02:10:48;;;;;;;26.13;18.23;;;17.60;99.90;;;;;;5123736;27;20185;-48
2021/09/12 02:13:15;;;;;;;30.17;19.97;;;17.60;99.90;;;;;;5113743;27;20193;-52
2021/09/12 02:15:43;;;;;;;25.87;20.00;;;17.60;99.90;;;;;;5123129;27;20322;-48
2021/09/12 02:18:11;;;;;;;29.63;20.30;;;17.60;99.90;;;;;;5109525;27;20624;-51
2021/09/12 02:20:38;;;;;;;26.13;19.40;;;17.60;99.90;;;;;;5122486;27;20195;-48
2021/09/12 02:23:05;;;;;;;27.80;19.80;;;17.60;99.90;;;;;;5122977;27;20200;-51
2021/09/12 02:25:31;;;;;;;27.50;19.83;;;17.60;99.90;;;;;;5121169;27;20216;-45
2021/09/12 02:27:58;;;;;;;28.50;20.63;;;17.60;99.90;;;;;;5119866;27;20200;-46
2021/09/12 02:30:25;;;;;;;27.53;21.60;;;17.60;99.90;;;;;;5135556;27;20700;-45
2021/09/12 02:32:53;;;;;;;30.03;21.70;;;17.60;99.90;;;;;;5128777;27;20204;-46
2021/09/12 02:35:20;;;;;;;28.27;20.63;;;17.60;99.90;;;;;;5123566;27;20216;-51
2021/09/12 02:37:46;;;;;;;30.50;21.10;;;17.50;99.90;;;;;;5127681;27;20221;-49
2021/09/12 02:40:13;;;;;;;31.17;21.17;;;17.60;99.90;;;;;;5124665;27;20203;-48
2021/09/12 02:42:40;;;;;;;28.60;20.87;;;17.50;99.90;;;;;;5126700;27;20802;-47
2021/09/12 02:45:08;;;;;;;31.03;22.13;;;17.50;99.90;;;;;;5118458;27;20592;-51
2021/09/12 02:47:35;;;;;;;30.10;21.97;;;17.50;99.90;;;;;;5125432;27;20189;-46
2021/09/12 02:50:04;;;;;;;30.57;21.30;;;17.50;99.90;;;;;;5114101;27;20584;-53
2021/09/12 02:52:31;;;;;;;30.83;21.73;;;17.50;99.90;;;;;;5130009;27;20281;-46
2021/09/12 02:54:58;;;;;;;35.93;22.23;;;17.50;99.90;;;;;;5127295;27;20211;-45
2021/09/12 02:57:25;;;;;;;30.40;21.87;;;17.50;99.90;;;;;;5123196;27;20211;-48
2021/09/12 02:59:51;;;;;;;31.63;22.43;;;17.40;99.90;;;;;;5128804;27;20204;-48
2021/09/12 03:02:18;;;;;;;31.77;22.30;;;17.40;99.90;;;;;;5123066;27;20248;-50
2021/09/12 03:04:44;;;;;;;29.70;21.87;;;17.40;99.90;;;;;;5110622;27;20216;-51
2021/09/12 03:07:12;;;;;;;29.43;21.03;;;17.40;99.90;;;;;;5116292;27;20188;-52
2021/09/12 03:09:39;;;;;;;34.33;22.30;;;17.50;99.90;;;;;;5125489;27;20181;-47
2021/09/12 03:12:06;;;;;;;27.17;21.07;;;17.40;99.90;;;;;;5126034;27;20197;-53
2021/09/12 03:14:33;;;;;;;29.90;21.20;;;17.50;99.90;;;;;;5106505;27;20209;-49
2021/09/12 03:17:00;;;;;;;29.93;22.23;;;17.40;99.90;;;;;;5106078;28;20560;-48
2021/09/12 03:19:27;;;;;;;31.50;21.50;;;17.40;99.90;;;;;;5092825;27;21410;-46
2021/09/12 03:21:53;;;;;;;29.70;20.90;;;17.50;99.90;;;;;;5124016;27;20207;-48
2021/09/12 03:24:21;;;;;;;30.93;23.17;;;17.50;99.90;;;;;;5122654;27;20200;-48
2021/09/12 03:26:48;;;;;;;30.37;21.30;;;17.50;99.90;;;;;;5126808;27;20200;-47
2021/09/12 03:29:14;;;;;;;32.80;22.43;;;17.50;99.90;;;;;;5124996;27;20199;-53
2021/09/12 03:31:41;;;;;;;32.83;23.30;;;17.50;99.90;;;;;;5137276;27;20231;-46
2021/09/12 03:34:08;;;;;;;31.17;21.97;;;17.50;99.90;;;;;;5138541;27;20184;-54
2021/09/12 03:36:35;;;;;;;27.43;20.37;;;17.40;99.90;;;;;;5117969;27;20208;-47
2021/09/12 03:39:01;;;;;;;32.17;20.57;;;17.40;99.90;;;;;;5125235;27;20200;-52
2021/09/12 03:41:29;;;;;;;25.07;19.47;;;17.40;99.90;;;;;;5123484;27;20408;-49
2021/09/12 03:43:56;;;;;;;24.67;20.43;;;17.30;99.90;;;;;;5126487;27;20196;-51
2021/09/12 03:46:23;;;;;;;28.27;20.00;;;17.30;99.90;;;;;;5114882;27;20282;-47
2021/09/12 03:48:49;;;;;;;34.90;20.80;;;17.30;99.90;;;;;;5126068;27;20188;-47
2021/09/12 03:51:16;;;;;;;30.73;20.73;;;17.30;99.90;;;;;;5110448;27;20200;-54
2021/09/12 03:53:42;;;;;;;29.63;21.47;;;17.20;99.90;;;;;;5125522;27;20192;-49
2021/09/12 03:56:09;;;;;;;33.67;23.23;;;17.20;99.90;;;;;;5124223;27;20219;-52
2021/09/12 03:58:37;;;;;;;31.17;22.17;;;17.20;99.90;;;;;;5130028;27;20904;-49
2021/09/12 04:01:04;;;;;;;29.90;21.53;;;17.20;99.90;;;;;;5114019;27;20193;-53
2021/09/12 04:03:30;;;;;;;27.50;21.80;;;17.20;99.90;;;;;;5102568;27;20212;-46
2021/09/12 04:05:57;;;;;;;31.97;21.83;;;17.20;99.90;;;;;;5105509;28;20236;-48
2021/09/12 04:08:23;;;;;;;31.17;23.37;;;17.10;99.90;;;;;;5106213;27;20199;-51
2021/09/12 04:10:50;;;;;;;32.77;22.70;;;17.10;99.90;;;;;;5125556;27;20193;-45
2021/09/12 04:13:17;;;;;;;36.00;22.50;;;17.10;99.90;;;;;;5122632;27;20210;-51
2021/09/12 04:15:44;;;;;;;32.57;22.43;;;17.10;99.90;;;;;;5117676;27;20212;-47
2021/09/12 04:18:11;;;;;;;31.43;21.50;;;17.10;99.90;;;;;;5123082;27;20197;-53
2021/09/12 04:20:38;;;;;;;34.37;23.30;;;17.10;99.90;;;;;;5124000;27;20188;-48
2021/09/12 04:23:04;;;;;;;33.47;23.53;;;17.00;99.90;;;;;;5112627;27;20833;-52
2021/09/12 04:25:31;;;;;;;31.93;23.57;;;17.00;99.90;;;;;;5122488;27;20215;-47
2021/09/12 04:27:57;;;;;;;32.20;22.43;;;17.00;99.90;;;;;;5125841;27;20198;-47
2021/09/12 04:30:24;;;;;;;34.50;23.67;;;17.00;99.90;;;;;;5122269;27;20247;-47
2021/09/12 04:32:52;;;;;;;42.17;23.93;;;17.00;99.90;;;;;;5124778;27;20196;-48
2021/09/12 04:35:19;;;;;;;31.83;23.23;;;17.00;99.90;;;;;;5121823;27;20561;-52
2021/09/12 04:37:45;;;;;;;35.53;23.87;;;17.00;99.90;;;;;;5112880;27;20581;-45
2021/09/12 04:40:12;;;;;;;34.40;24.57;;;17.00;99.90;;;;;;5122427;27;20189;-50
2021/09/12 04:42:39;;;;;;;35.53;24.63;;;17.00;99.90;;;;;;5124026;27;20187;-45
2021/09/12 04:45:06;;;;;;;33.17;24.07;;;17.00;99.90;;;;;;5124206;27;20733;-53
2021/09/12 04:47:33;;;;;;;34.90;25.83;;;17.00;99.90;;;;;;5114809;27;20200;-46
2021/09/12 04:50:00;;;;;;;39.13;25.33;;;17.00;99.90;;;;;;5124279;27;20189;-46
2021/09/12 04:52:27;;;;;;;33.47;23.90;;;17.10;99.90;;;;;;5109745;27;20201;-45
2021/09/12 04:54:54;;;;;;;35.60;24.53;;;17.00;99.90;;;;;;5126896;27;20213;-49
2021/09/12 04:57:21;;;;;;;34.40;24.27;;;17.10;99.90;;;;;;5120911;27;20196;-47
2021/09/12 04:59:47;;;;;;;33.77;25.13;;;17.00;99.90;;;;;;5106469;27;20204;-47
2021/09/12 05:02:14;;;;;;;31.77;23.53;;;17.10;99.90;;;;;;5116646;27;20204;-51
2021/09/12 05:04:40;;;;;;;39.50;26.00;;;17.10;99.90;;;;;;5103461;28;20209;-46
2021/09/12 05:07:08;;;;;;;37.40;24.57;;;17.10;99.90;;;;;;5102250;28;20200;-51
2021/09/12 05:09:35;;;;;;;34.00;23.73;;;17.10;99.90;;;;;;5101167;27;20201;-47
2021/09/12 05:12:02;;;;;;;37.03;25.57;;;17.10;99.90;;;;;;5124252;27;20199;-51
2021/09/12 05:14:28;;;;;;;38.87;25.63;;;17.10;99.90;;;;;;5121274;27;20177;-49
2021/09/12 05:16:55;;;;;;;37.30;25.27;;;17.10;99.90;;;;;;5124470;27;20193;-46
2021/09/12 05:19:21;;;;;;;34.63;25.00;;;17.10;99.90;;;;;;5096403;27;20799;-46
2021/09/12 05:21:48;;;;;;;37.03;24.13;;;17.10;99.90;;;;;;5104033;28;20197;-46
2021/09/12 05:24:16;;;;;;;37.00;25.07;;;17.10;99.90;;;;;;5093834;27;20190;-51
2021/09/12 05:26:43;;;;;;;34.13;24.90;;;17.10;99.90;;;;;;5122249;27;20211;-48
2021/09/12 05:29:09;;;;;;;36.40;24.63;;;17.10;99.90;;;;;;5129048;27;20284;-53
2021/09/12 05:31:36;;;;;;;38.87;25.20;;;17.10;99.90;;;;;;5124114;27;20197;-47
2021/09/12 05:34:03;;;;;;;43.07;26.60;;;17.10;99.90;;;;;;5099001;27;20208;-49
2021/09/12 05:36:29;;;;;;;37.07;25.90;;;17.10;99.90;;;;;;5109121;27;20957;-47
2021/09/12 05:38:56;;;;;;;37.37;25.27;;;17.10;99.90;;;;;;5104515;27;20205;-45
2021/09/12 05:41:24;;;;;;;37.30;26.37;;;17.10;99.90;;;;;;5104486;27;20196;-47
2021/09/12 05:43:50;;;;;;;38.80;25.13;;;17.10;99.90;;;;;;5115460;27;20798;-45
2021/09/12 05:46:17;;;;;;;35.50;25.23;;;17.10;99.90;;;;;;5107922;27;20733;-49
2021/09/12 05:48:44;;;;;;;39.50;25.50;;;17.10;99.90;;;;;;5090576;27;20205;-48
2021/09/12 05:51:10;;;;;;;38.73;25.20;;;17.10;99.90;;;;;;5110667;28;20199;-47
2021/09/12 05:53:37;;;;;;;41.47;27.60;;;17.20;99.90;;;;;;5103420;27;20220;-48
2021/09/12 05:56:04;;;;;;;41.13;28.10;;;17.20;99.90;;;;;;5107690;27;20216;-51
2021/09/12 05:58:32;;;;;;;39.67;25.47;;;17.20;99.90;;;;;;5116162;27;20251;-46
2021/09/12 06:00:59;;;;;;;41.83;26.83;;;17.30;99.90;;;;;;5138569;27;20199;-54
2021/09/12 06:03:25;;;;;;;40.33;26.23;;;17.30;99.90;;;;;;5141547;27;20185;-46
2021/09/12 06:05:52;;;;;;;41.60;26.73;;;17.30;99.90;;;;;;5113617;27;20212;-52
2021/09/12 06:08:19;;;;;;;40.63;27.40;;;17.30;99.90;;;;;;5110780;27;20197;-49
2021/09/12 06:10:45;;;;;;;40.90;27.30;;;17.30;99.90;;;;;;5121039;27;20197;-48
2021/09/12 06:13:12;;;;;;;40.37;24.20;;;17.30;99.90;;;;;;5106568;27;20204;-52
2021/09/12 06:15:40;;;;;;;37.57;25.33;;;17.30;99.90;;;;;;5110841;27;20210;-52
2021/09/12 06:18:06;;;;;;;44.03;27.33;;;17.40;99.90;;;;;;5123736;27;20177;-50
2021/09/12 06:20:33;;;;;;;38.83;24.83;;;17.40;99.90;;;;;;5114618;27;20197;-46
2021/09/12 06:23:00;;;;;;;34.10;23.70;;;17.40;99.90;;;;;;5108942;27;20188;-48
2021/09/12 06:25:26;;;;;;;36.10;25.33;;;17.40;99.90;;;;;;5116879;27;20712;-49
2021/09/12 06:27:53;;;;;;;38.17;25.33;;;17.40;99.90;;;;;;5104197;27;20292;-46
2021/09/12 06:30:20;;;;;;;36.83;25.67;;;17.50;99.90;;;;;;5127237;27;20204;-46
2021/09/12 06:32:48;;;;;;;39.63;25.40;;;17.50;99.90;;;;;;5118258;27;20655;-53
2021/09/12 06:35:16;;;;;;;35.80;25.30;;;17.50;99.90;;;;;;5121050;27;20218;-46
2021/09/12 06:37:42;;;;;;;36.93;24.83;;;17.50;99.90;;;;;;5105582;27;20205;-51
2021/09/12 06:40:11;;;;;;;33.57;24.10;;;17.50;99.90;;;;;;5125604;27;20204;-48
2021/09/12 06:42:38;;;;;;;34.03;24.83;;;17.50;99.90;;;;;;5114335;27;20253;-52
2021/09/12 06:45:06;;;;;;;36.40;25.97;;;17.50;99.90;;;;;;5126050;27;20224;-46
2021/09/12 06:47:33;;;;;;;37.97;24.77;;;17.60;99.90;;;;;;5114072;27;20211;-52
2021/09/12 06:50:01;;;;;;;36.10;24.40;;;17.60;99.90;;;;;;5115614;27;20193;-50
2021/09/12 06:52:27;;;;;;;35.13;24.00;;;17.60;99.90;;;;;;5108859;27;20201;-48
2021/09/12 06:54:56;;;;;;;34.47;23.63;;;17.60;99.90;;;;;;5114624;27;20221;-46
2021/09/12 06:57:22;;;;;;;34.60;24.83;;;17.60;99.90;;;;;;5126780;27;20257;-48
2021/09/12 06:59:49;;;;;;;35.53;23.97;;;17.60;99.90;;;;;;5102846;27;20482;-49
2021/09/12 07:02:15;;;;;;;31.87;23.93;;;17.60;99.90;;;;;;5124886;27;20287;-50
2021/09/12 07:04:42;;;;;;;29.90;22.80;;;17.60;99.90;;;;;;5124073;27;20692;-52
2021/09/12 07:07:10;;;;;;;35.43;23.67;;;17.60;99.90;;;;;;5124581;27;20208;-46
2021/09/12 07:09:37;;;;;;;29.83;22.03;;;17.60;99.90;;;;;;5118460;27;20212;-52
2021/09/12 07:12:04;;;;;;;33.60;21.80;;;17.60;99.90;;;;;;5124941;27;20185;-46
2021/09/12 07:14:30;;;;;;;29.23;21.47;;;17.60;99.90;;;;;;5107897;27;20212;-50
2021/09/12 07:16:57;;;;;;;31.70;22.67;;;17.60;99.90;;;;;;5121261;27;20173;-46
2021/09/12 07:19:24;;;;;;;31.67;20.90;;;17.70;99.90;;;;;;5125398;27;20189;-47
2021/09/12 07:21:50;;;;;;;31.17;21.57;;;17.70;99.90;;;;;;5122921;27;20196;-47
2021/09/12 07:24:19;;;;;;;28.40;21.20;;;17.70;99.90;;;;;;5119211;27;20280;-46
2021/09/12 07:26:45;;;;;;;31.10;22.10;;;17.70;99.90;;;;;;5123369;27;20213;-52
2021/09/12 07:29:12;;;;;;;28.40;20.90;;;17.80;99.90;;;;;;5132724;27;20208;-45
2021/09/12 07:31:39;;;;;;;26.63;20.53;;;17.80;99.90;;;;;;5120956;27;20205;-53
2021/09/12 07:34:05;;;;;;;24.53;18.50;;;17.80;99.90;;;;;;5124598;27;20184;-47
2021/09/12 07:36:32;;;;;;;25.87;19.40;;;17.90;99.90;;;;;;5125950;27;20220;-52
2021/09/12 07:38:58;;;;;;;27.17;18.70;;;17.90;99.90;;;;;;5106230;27;20240;-51
2021/09/12 07:41:26;;;;;;;27.57;20.07;;;17.90;99.90;;;;;;5106121;28;20193;-48
2021/09/12 07:43:53;;;;;;;25.03;18.20;;;18.00;99.90;;;;;;5101880;27;20192;-48
2021/09/12 07:46:20;;;;;;;25.87;18.83;;;18.00;99.90;;;;;;5100861;27;20221;-46
2021/09/12 07:48:46;;;;;;;25.20;18.23;;;18.10;99.90;;;;;;5122485;27;20196;-49
2021/09/12 07:51:13;;;;;;;21.10;17.57;;;18.10;99.90;;;;;;5125911;27;20684;-48
2021/09/12 07:53:39;;;;;;;22.17;17.47;;;18.20;99.90;;;;;;5120318;27;20193;-51
2021/09/12 07:56:06;;;;;;;23.83;17.47;;;18.20;99.90;;;;;;5102226;27;20210;-47
2021/09/12 07:58:34;;;;;;;24.73;17.90;;;18.20;99.90;;;;;;5109422;27;20201;-52
2021/09/12 08:01:01;;;;;;;22.13;17.37;;;18.30;99.90;;;;;;5107763;27;20212;-53
2021/09/12 08:03:27;;;;;;;21.07;15.93;;;18.30;99.90;;;;;;5107816;27;20211;-49
2021/09/12 08:05:54;;;;;;;22.93;15.20;;;18.30;99.90;;;;;;5113485;27;20559;-52
2021/09/12 08:08:21;;;;;;;19.87;14.67;;;18.40;99.90;;;;;;5106837;27;20212;-48
2021/09/12 08:10:47;;;;;;;19.67;14.87;;;18.40;99.90;;;;;;5099636;27;20685;-53
2021/09/12 08:13:14;;;;;;;17.73;14.27;;;18.50;99.90;;;;;;5104953;27;20212;-50
2021/09/12 08:15:42;;;;;;;20.23;14.73;;;18.60;99.90;;;;;;5110776;27;20578;-52
2021/09/12 08:18:08;;;;;;;18.83;13.90;;;18.70;99.90;;;;;;5112248;27;20214;-48
2021/09/12 08:20:35;;;;;;;19.30;14.33;;;18.80;99.90;;;;;;5114767;27;20559;-47
2021/09/12 08:23:02;;;;;;;19.27;14.53;;;18.80;99.90;;;;;;5114414;27;20232;-47
2021/09/12 08:25:29;;;;;;;21.40;15.93;;;18.90;99.90;;;;;;5108527;27;20222;-46
2021/09/12 08:27:55;;;;;;;18.97;14.80;;;18.90;99.90;;;;;;5103366;27;20200;-51
2021/09/12 08:30:22;;;;;;;20.77;14.83;;;19.00;99.90;;;;;;5123256;27;20199;-46
2021/09/12 08:32:50;;;;;;;20.93;15.47;;;19.10;99.90;;;;;;5109029;27;20208;-54
2021/09/12 08:35:17;;;;;;;20.03;15.37;;;19.10;99.90;;;;;;5109269;27;20853;-49
2021/09/12 08:37:43;;;;;;;20.97;14.50;;;19.10;99.90;;;;;;5119733;27;20200;-52
2021/09/12 08:40:11;;;;;;;21.07;15.03;;;19.20;99.90;;;;;;5103952;27;20689;-46
2021/09/12 08:42:38;;;;;;;21.03;14.27;;;19.30;99.90;;;;;;5123112;27;20209;-53
2021/09/12 08:45:06;;;;;;;16.97;12.33;;;19.40;99.90;;;;;;5110039;27;20306;-50
2021/09/12 08:47:33;;;;;;;17.27;12.97;;;19.50;99.90;;;;;;5123515;27;20212;-47
2021/09/12 08:50:01;;;;;;;18.03;12.17;;;19.60;99.90;;;;;;5100449;27;20196;-52
2021/09/12 08:52:28;;;;;;;16.63;13.10;;;19.60;99.90;;;;;;5121574;27;20209;-49
2021/09/12 08:54:54;;;;;;;17.27;12.67;;;19.60;99.90;;;;;;5106320;27;20559;-55
2021/09/12 08:57:21;;;;;;;18.30;13.43;;;19.60;99.90;;;;;;5124583;27;20185;-46
2021/09/12 08:59:50;;;;;;;17.53;13.87;;;19.80;99.90;;;;;;5129571;27;20200;-52
2021/09/12 09:02:24;;;;;;;17.37;13.20;;;19.80;99.90;;;;;;5123595;27;20196;-49
2021/09/12 09:04:59;;;;;;;15.73;12.97;;;19.70;99.90;;;;;;5116599;27;20226;-54
2021/09/12 09:07:29;;;;;;;16.87;13.70;;;19.60;99.90;;;;;;5111172;27;20223;-46
2021/09/12 09:09:57;;;;;;;21.13;12.60;;;19.60;99.90;;;;;;5112651;27;20199;-56
2021/09/12 09:12:26;;;;;;;17.37;12.70;;;19.50;99.90;;;;;;5118239;27;20231;-48
2021/09/12 09:15:06;;;;;;;20.90;13.10;;;19.50;99.90;;;;;;5110368;27;20740;-48
2021/09/12 09:17:37;;;;;;;17.23;12.67;;;19.50;99.90;;;;;;5118598;27;20192;-48
2021/09/12 09:20:06;;;;;;;18.53;12.63;;;19.60;99.90;;;;;;5101820;27;20200;-45
2021/09/12 09:22:36;;;;;;;16.30;12.13;;;19.70;99.90;;;;;;5112253;27;20205;-50
2021/09/12 09:25:09;;;;;;;17.70;12.30;;;19.70;99.90;;;;;;5112299;27;20224;-50
2021/09/12 09:27:51;;;;;;;22.57;14.53;;;19.70;99.90;;;;;;5124221;27;20216;-50
2021/09/12 09:30:18;;;;;;;18.33;12.33;;;19.60;99.90;;;;;;5124117;27;20188;-48
2021/09/12 09:32:44;;;;;;;16.03;11.93;;;19.70;99.90;;;;;;5108456;27;20211;-51
2021/09/12 09:35:14;;;;;;;18.53;12.67;;;19.70;99.90;;;;;;5112139;27;20229;-52
2021/09/12 09:37:48;;;;;;;19.37;12.70;;;19.80;99.90;;;;;;5100249;27;20204;-50
2021/09/12 09:40:15;;;;;;;15.73;12.63;;;19.60;99.90;;;;;;5106130;27;20189;-53
2021/09/12 09:42:44;;;;;;;18.73;13.60;;;19.60;99.90;;;;;;5106440;27;20200;-51
2021/09/12 09:45:12;;;;;;;21.40;12.00;;;19.50;99.90;;;;;;5116748;27;20223;-53
2021/09/12 09:47:40;;;;;;;16.77;12.43;;;19.50;99.90;;;;;;5120489;27;20200;-53
2021/09/12 09:50:09;;;;;;;22.40;13.73;;;19.50;99.90;;;;;;5111036;28;20201;-52
2021/09/12 09:52:37;;;;;;;15.53;12.10;;;19.50;99.90;;;;;;5102036;27;20201;-53
2021/09/12 09:55:07;;;;;;;15.73;12.90;;;19.50;99.90;;;;;;5112467;27;20607;-52
2021/09/12 09:57:34;;;;;;;17.87;12.80;;;19.60;99.90;;;;;;5096945;27;20822;-53
2021/09/12 10:00:01;;;;;;;16.70;13.07;;;19.70;99.90;;;;;;5130681;27;20575;-51
2021/09/12 10:02:28;;;;;;;18.63;13.10;;;19.80;99.90;;;;;;5117403;27;20661;-52
2021/09/12 10:04:56;;;;;;;17.50;13.10;;;19.80;99.90;;;;;;5115276;27;20573;-54
2021/09/12 10:07:24;;;;;;;16.93;11.93;;;19.90;99.90;;;;;;5100971;27;20216;-53
2021/09/12 10:09:51;;;;;;;14.40;11.33;;;19.90;99.90;;;;;;5116720;27;20193;-53
2021/09/12 10:12:19;;;;;;;17.33;11.97;;;19.90;99.90;;;;;;5107581;27;20207;-54
2021/09/12 10:14:49;;;;;;;16.77;13.13;;;20.00;99.90;;;;;;5115830;28;20211;-55
2021/09/12 10:17:21;;;;;;;15.70;12.20;;;20.00;99.90;;;;;;5109677;27;20197;-51
2021/09/12 10:19:48;;;;;;;15.53;11.27;;;20.00;99.90;;;;;;5114056;28;20215;-55
2021/09/12 10:22:16;;;;;;;20.57;12.07;;;20.00;99.90;;;;;;5111061;27;20185;-53
2021/09/12 10:25:09;;;;;;;18.57;11.83;;;20.10;99.90;;;;;;5108296;27;20220;-55
2021/09/12 10:27:40;;;;;;;16.17;12.00;;;20.10;99.90;;;;;;5115358;27;20279;-56
2021/09/12 10:30:22;;;;;;;12.53;10.90;;;20.10;99.90;;;;;;5113218;27;20942;-52
2021/09/12 10:32:50;;;;;;;18.17;10.60;;;20.10;99.90;;;;;;5118260;28;20202;-54
2021/09/12 10:35:21;;;;;;;17.87;11.83;;;20.10;99.90;;;;;;5123081;27;20219;-49
2021/09/12 10:37:56;;;;;;;14.10;10.70;;;20.10;99.90;;;;;;5114109;27;20201;-53
2021/09/12 10:40:23;;;;;;;14.80;9.90;;;20.20;99.90;;;;;;5105679;27;20708;-48
2021/09/12 10:42:51;;;;;;;13.90;10.53;;;20.20;99.90;;;;;;5103782;27;20225;-53
2021/09/12 10:45:28;;;;;;;14.47;10.67;;;20.20;99.90;;;;;;5116912;27;20224;-50
2021/09/12 10:48:20;;;;;;;14.33;9.10;;;20.30;99.90;;;;;;5122357;27;20220;-52
2021/09/12 10:50:47;;;;;;;13.90;9.40;;;20.40;99.90;;;;;;5118510;27;20245;-53
2021/09/12 10:53:14;;;;;;;10.87;9.17;;;20.40;99.90;;;;;;5126384;27;20988;-52
2021/09/12 10:56:01;;;;;;;13.30;8.70;;;20.40;99.90;;;;;;5112071;27;20221;-51
2021/09/12 10:58:31;;;;;;;14.03;8.57;;;20.40;99.90;;;;;;5111379;27;20219;-48
2021/09/12 11:00:59;;;;;;;10.13;8.57;;;20.40;99.90;;;;;;5122736;27;20181;-48
2021/09/12 11:03:26;;;;;;;10.60;8.63;;;20.50;99.90;;;;;;5123864;27;20192;-49
2021/09/12 11:05:53;;;;;;;13.07;9.40;;;20.50;99.90;;;;;;5132593;27;20216;-54
2021/09/12 11:08:20;;;;;;;8.87;7.97;;;20.50;99.90;;;;;;5147746;27;20227;-48
2021/09/12 11:10:50;;;;;;;11.10;8.03;;;20.50;99.90;;;;;;5123627;27;20197;-53
2021/09/12 11:13:24;;;;;;;11.37;7.77;;;20.50;99.90;;;;;;5113733;27;20216;-47
2021/09/12 11:15:54;;;;;;;9.53;7.83;;;20.40;99.90;;;;;;5112784;27;20764;-48
2021/09/12 11:18:21;;;;;;;14.03;9.07;;;20.50;99.90;;;;;;5139159;27;20195;-52
2021/09/12 11:20:49;;;;;;;12.60;8.73;;;20.50;99.90;;;;;;5136642;27;20214;-50
2021/09/12 11:23:28;;;;;;;11.07;8.10;;;20.60;99.90;;;;;;5137651;27;20867;-49
2021/09/12 11:25:57;;;;;;;10.48;8.15;;;20.70;99.90;;;;;;5133643;27;20224;-52
2021/09/12 11:28:26;;;;;;;13.63;8.30;;;20.90;99.90;;;;;;5115622;27;20290;-48
2021/09/12 11:30:55;;;;;;;13.33;8.30;;;21.00;99.90;;;;;;5114587;27;20197;-49
2021/09/12 11:33:22;;;;;;;9.77;7.85;;;21.10;99.90;;;;;;5127894;27;20189;-48
2021/09/12 11:35:59;;;;;;;8.77;6.97;;;21.10;99.90;;;;;;5141571;27;20212;-53
2021/09/12 11:38:29;;;;;;;9.93;7.43;;;21.10;99.90;;;;;;5132459;27;20192;-48
2021/09/12 11:40:59;;;;;;;9.37;7.00;;;21.10;99.90;;;;;;5140779;27;20196;-51
2021/09/12 11:43:27;;;;;;;8.47;6.63;;;21.20;99.90;;;;;;5114166;27;20207;-47
2021/09/12 11:46:09;;;;;;;11.40;7.50;;;21.20;99.90;;;;;;5126272;27;20219;-52
2021/09/12 11:48:37;;;;;;;10.00;6.68;;;21.20;99.90;;;;;;5134647;27;20306;-50
2021/09/12 11:51:04;;;;;;;7.50;6.80;;;21.20;99.90;;;;;;5126416;27;20173;-55
2021/09/12 11:53:30;;;;;;;8.80;6.67;;;21.10;99.90;;;;;;5110483;27;20193;-49
2021/09/12 11:56:08;;;;;;;8.02;7.20;;;21.20;99.90;;;;;;5110393;27;20213;-51
2021/09/12 11:58:35;;;;;;;7.57;6.47;;;21.20;99.90;;;;;;5110376;27;20279;-50
2021/09/12 12:01:02;;;;;;;10.70;7.65;;;21.20;99.90;;;;;;5113766;27;20693;-51
2021/09/12 12:03:30;;;;;;;8.53;7.07;;;21.20;99.90;;;;;;5115817;27;20258;-50
2021/09/12 12:05:58;;;;;;;7.90;7.10;;;21.20;99.90;;;;;;5110607;27;20211;-48
2021/09/12 12:08:25;;;;;;;10.05;8.27;;;21.30;99.90;;;;;;5114164;27;20220;-49
2021/09/12 12:10:52;;;;;;;10.23;6.73;;;21.30;99.90;;;;;;5111562;27;20188;-50
2021/09/12 12:13:29;;;;;;;7.97;7.18;;;21.40;99.90;;;;;;5103548;27;20212;-48
2021/09/12 12:16:00;;;;;;;9.27;7.18;;;21.40;99.90;;;;;;5109438;27;20208;-51
2021/09/12 12:18:27;;;;;;;8.20;7.00;;;21.40;99.90;;;;;;5118323;27;20245;-53
2021/09/12 12:20:57;;;;;;;7.95;6.45;;;21.50;99.90;;;;;;5118620;27;20194;-53
2021/09/12 12:23:25;;;;;;;8.40;6.40;;;21.60;99.90;;;;;;5114098;27;20686;-48
2021/09/12 12:25:54;;;;;;;6.38;5.72;;;21.70;99.90;;;;;;5109568;27;20236;-49
2021/09/12 12:28:22;;;;;;;6.25;5.68;;;21.70;99.90;;;;;;5108740;27;20211;-50
2021/09/12 12:31:10;;;;;;;8.48;6.07;;;21.90;99.90;;;;;;5115278;27;20201;-51